sensor_id;sensor_type;location;lat;lon;timestamp;temperature;humidity
14531;DHT22;7352;50.866;4.366;2023-04-03T00:01:19;5.80;99.90
14531;DHT22;7352;50.866;4.366;2023-04-03T00:03:46;5.60;99.90
14531;DHT22;7352;50.866;4.366;2023-04-03T00:06:15;5.60;99.90
14531;DHT22;7352;50.866;4.366;2023-04-03T00:08:42;5.60;99.90
14531;DHT22;7352;50.866;4.366;2023-04-03T00:11:09;5.70;99.90
14531;DHT22;7352;50.866;4.366;2023-04-03T00:13:39;5.70;99.90
14531;DHT22;7352;50.866;4.366;2023-04-03T00:16:14;5.70;99.90
14531;DHT22;7352;50.866;4.366;2023-04-03T00:18:43;5.70;99.90
14531;DHT22;7352;50.866;4.366;2023-04-03T00:21:12;5.70;99.90
14531;DHT22;7352;50.866;4.366;2023-04-03T00:23:41;5.70;99.90
14531;DHT22;7352;50.866;4.366;2023-04-03T00:26:08;5.70;99.90
14531;DHT22;7352;50.866;4.366;2023-04-03T00:28:46;5.80;99.90
14531;DHT22;7352;50.866;4.366;2023-04-03T00:31:14;5.80;99.90
14531;DHT22;7352;50.866;4.366;2023-04-03T00:33:41;6.00;99.90
14531;DHT22;7352;50.866;4.366;2023-04-03T00:36:09;6.00;99.90
14531;DHT22;7352;50.866;4.366;2023-04-03T00:38:36;5.90;99.90
14531;DHT22;7352;50.866;4.366;2023-04-03T00:41:05;5.80;99.90
14531;DHT22;7352;50.866;4.366;2023-04-03T00:43:32;5.80;99.90
14531;DHT22;7352;50.866;4.366;2023-04-03T00:46:05;5.70;99.90
14531;DHT22;7352;50.866;4.366;2023-04-03T00:48:42;5.70;99.90
14531;DHT22;7352;50.866;4.366;2023-04-03T00:51:25;5.70;99.90
14531;DHT22;7352;50.866;4.366;2023-04-03T00:53:59;5.70;99.90
14531;DHT22;7352;50.866;4.366;2023-04-03T01:00:08;5.70;99.90
14531;DHT22;7352;50.866;4.366;2023-04-03T01:02:50;5.80;99.90
14531;DHT22;7352;50.866;4.366;2023-04-03T01:05:22;5.70;99.90
14531;DHT22;7352;50.866;4.366;2023-04-03T01:08:07;5.70;99.90
14531;DHT22;7352;50.866;4.366;2023-04-03T01:10:35;5.70;99.90
14531;DHT22;7352;50.866;4.366;2023-04-03T01:13:17;5.60;99.90
14531;DHT22;7352;50.866;4.366;2023-04-03T01:15:46;5.50;99.90
14531;DHT22;7352;50.866;4.366;2023-04-03T01:18:17;5.60;99.90
14531;DHT22;7352;50.866;4.366;2023-04-03T01:24:04;5.60;99.90
14531;DHT22;7352;50.866;4.366;2023-04-03T01:26:34;5.50;99.90
14531;DHT22;7352;50.866;4.366;2023-04-03T01:29:02;5.50;99.90
14531;DHT22;7352;50.866;4.366;2023-04-03T01:31:40;5.40;99.90
14531;DHT22;7352;50.866;4.366;2023-04-03T01:34:07;5.50;99.90
14531;DHT22;7352;50.866;4.366;2023-04-03T01:36:36;5.40;99.90
14531;DHT22;7352;50.866;4.366;2023-04-03T01:39:18;5.50;99.90
14531;DHT22;7352;50.866;4.366;2023-04-03T01:41:45;5.50;99.90
14531;DHT22;7352;50.866;4.366;2023-04-03T01:44:12;5.60;99.90
14531;DHT22;7352;50.866;4.366;2023-04-03T01:46:41;5.50;99.90
14531;DHT22;7352;50.866;4.366;2023-04-03T01:49:10;5.40;99.90
14531;DHT22;7352;50.866;4.366;2023-04-03T01:51:37;5.40;99.90
14531;DHT22;7352;50.866;4.366;2023-04-03T01:54:04;5.20;99.90
14531;DHT22;7352;50.866;4.366;2023-04-03T01:56:31;5.10;99.90
14531;DHT22;7352;50.866;4.366;2023-04-03T01:58:58;5.20;99.90
14531;DHT22;7352;50.866;4.366;2023-04-03T02:01:25;5.10;99.90
14531;DHT22;7352;50.866;4.366;2023-04-03T02:03:53;5.10;99.90
14531;DHT22;7352;50.866;4.366;2023-04-03T02:06:27;5.20;99.90
14531;DHT22;7352;50.866;4.366;2023-04-03T02:08:55;5.10;99.90
14531;DHT22;7352;50.866;4.366;2023-04-03T02:11:23;5.20;99.90
14531;DHT22;7352;50.866;4.366;2023-04-03T02:13:49;5.20;99.90
14531;DHT22;7352;50.866;4.366;2023-04-03T02:16:16;5.10;99.90
14531;DHT22;7352;50.866;4.366;2023-04-03T02:18:44;5.20;99.90
14531;DHT22;7352;50.866;4.366;2023-04-03T02:21:26;5.10;99.90
14531;DHT22;7352;50.866;4.366;2023-04-03T02:23:53;5.10;99.90
14531;DHT22;7352;50.866;4.366;2023-04-03T02:26:20;5.10;99.90
14531;DHT22;7352;50.866;4.366;2023-04-03T02:28:48;5.00;99.90
14531;DHT22;7352;50.866;4.366;2023-04-03T02:31:15;5.00;99.90
14531;DHT22;7352;50.866;4.366;2023-04-03T02:33:42;5.00;99.90
14531;DHT22;7352;50.866;4.366;2023-04-03T02:36:10;5.10;99.90
14531;DHT22;7352;50.866;4.366;2023-04-03T02:38:38;5.10;99.90
14531;DHT22;7352;50.866;4.366;2023-04-03T02:41:09;5.10;99.90
14531;DHT22;7352;50.866;4.366;2023-04-03T02:43:39;4.90;99.90
14531;DHT22;7352;50.866;4.366;2023-04-03T02:46:06;4.90;99.90
14531;DHT22;7352;50.866;4.366;2023-04-03T02:48:34;4.90;99.90
14531;DHT22;7352;50.866;4.366;2023-04-03T02:51:01;4.90;99.90
14531;DHT22;7352;50.866;4.366;2023-04-03T02:53:28;5.00;99.90
14531;DHT22;7352;50.866;4.366;2023-04-03T02:55:56;4.80;99.90
14531;DHT22;7352;50.866;4.366;2023-04-03T02:58:23;4.80;99.90
14531;DHT22;7352;50.866;4.366;2023-04-03T03:00:50;4.70;99.90
14531;DHT22;7352;50.866;4.366;2023-04-03T03:03:17;4.80;99.90
14531;DHT22;7352;50.866;4.366;2023-04-03T03:05:44;4.80;99.90
14531;DHT22;7352;50.866;4.366;2023-04-03T03:08:13;4.80;99.90
14531;DHT22;7352;50.866;4.366;2023-04-03T03:10:40;4.80;99.90
14531;DHT22;7352;50.866;4.366;2023-04-03T03:13:08;4.80;99.90
14531;DHT22;7352;50.866;4.366;2023-04-03T03:15:38;4.80;99.90
14531;DHT22;7352;50.866;4.366;2023-04-03T03:18:09;4.90;99.90
14531;DHT22;7352;50.866;4.366;2023-04-03T03:20:37;4.80;99.90
14531;DHT22;7352;50.866;4.366;2023-04-03T03:23:22;4.70;99.90
14531;DHT22;7352;50.866;4.366;2023-04-03T03:25:54;4.60;99.90
14531;DHT22;7352;50.866;4.366;2023-04-03T03:28:31;4.70;99.90
14531;DHT22;7352;50.866;4.366;2023-04-03T03:31:00;4.50;99.90
14531;DHT22;7352;50.866;4.366;2023-04-03T03:33:28;4.60;99.90
14531;DHT22;7352;50.866;4.366;2023-04-03T03:35:56;4.60;99.90
14531;DHT22;7352;50.866;4.366;2023-04-03T03:38:23;4.50;99.90
14531;DHT22;7352;50.866;4.366;2023-04-03T03:40:54;4.40;99.90
14531;DHT22;7352;50.866;4.366;2023-04-03T03:43:23;4.50;99.90
14531;DHT22;7352;50.866;4.366;2023-04-03T03:45:52;4.50;99.90
14531;DHT22;7352;50.866;4.366;2023-04-03T03:48:20;4.50;99.90
14531;DHT22;7352;50.866;4.366;2023-04-03T03:50:50;4.50;99.90
14531;DHT22;7352;50.866;4.366;2023-04-03T03:53:17;4.40;99.90
14531;DHT22;7352;50.866;4.366;2023-04-03T03:55:44;4.40;99.90
14531;DHT22;7352;50.866;4.366;2023-04-03T03:58:12;4.60;99.90
14531;DHT22;7352;50.866;4.366;2023-04-03T04:00:39;4.50;99.90
14531;DHT22;7352;50.866;4.366;2023-04-03T04:03:08;4.50;99.90
14531;DHT22;7352;50.866;4.366;2023-04-03T04:05:36;4.40;99.90
14531;DHT22;7352;50.866;4.366;2023-04-03T04:08:08;4.30;99.90
14531;DHT22;7352;50.866;4.366;2023-04-03T04:10:35;4.40;99.90
14531;DHT22;7352;50.866;4.366;2023-04-03T04:13:04;4.30;99.90
14531;DHT22;7352;50.866;4.366;2023-04-03T04:15:31;4.20;99.90
14531;DHT22;7352;50.866;4.366;2023-04-03T04:17:59;4.30;99.90
14531;DHT22;7352;50.866;4.366;2023-04-03T04:20:41;4.20;99.90
14531;DHT22;7352;50.866;4.366;2023-04-03T04:23:08;4.10;99.90
14531;DHT22;7352;50.866;4.366;2023-04-03T04:25:35;4.10;99.90
14531;DHT22;7352;50.866;4.366;2023-04-03T04:28:02;4.30;99.90
14531;DHT22;7352;50.866;4.366;2023-04-03T04:30:30;4.10;99.90
14531;DHT22;7352;50.866;4.366;2023-04-03T04:33:00;4.00;99.90
14531;DHT22;7352;50.866;4.366;2023-04-03T04:35:43;3.90;99.90
14531;DHT22;7352;50.866;4.366;2023-04-03T04:38:10;4.00;99.90
14531;DHT22;7352;50.866;4.366;2023-04-03T04:40:37;3.90;99.90
14531;DHT22;7352;50.866;4.366;2023-04-03T04:43:07;4.10;99.90
14531;DHT22;7352;50.866;4.366;2023-04-03T04:45:36;3.80;99.90
14531;DHT22;7352;50.866;4.366;2023-04-03T04:48:08;3.80;99.90
14531;DHT22;7352;50.866;4.366;2023-04-03T04:51:02;3.90;99.90
14531;DHT22;7352;50.866;4.366;2023-04-03T04:53:30;3.90;99.90
14531;DHT22;7352;50.866;4.366;2023-04-03T04:55:57;3.90;99.90
14531;DHT22;7352;50.866;4.366;2023-04-03T04:58:25;3.90;99.90
14531;DHT22;7352;50.866;4.366;2023-04-03T05:00:58;3.90;99.90
14531;DHT22;7352;50.866;4.366;2023-04-03T05:03:25;3.90;99.90
14531;DHT22;7352;50.866;4.366;2023-04-03T05:05:52;3.80;99.90
14531;DHT22;7352;50.866;4.366;2023-04-03T05:08:21;4.00;99.90
14531;DHT22;7352;50.866;4.366;2023-04-03T05:10:48;4.00;99.90
14531;DHT22;7352;50.866;4.366;2023-04-03T05:13:15;4.10;99.90
14531;DHT22;7352;50.866;4.366;2023-04-03T05:15:42;4.00;99.90
14531;DHT22;7352;50.866;4.366;2023-04-03T05:18:09;4.10;99.90
14531;DHT22;7352;50.866;4.366;2023-04-03T05:20:45;4.30;99.90
14531;DHT22;7352;50.866;4.366;2023-04-03T05:23:31;4.00;99.90
14531;DHT22;7352;50.866;4.366;2023-04-03T05:25:58;3.90;99.90
14531;DHT22;7352;50.866;4.366;2023-04-03T05:28:25;4.00;99.90
14531;DHT22;7352;50.866;4.366;2023-04-03T05:30:55;3.90;99.90
14531;DHT22;7352;50.866;4.366;2023-04-03T05:33:23;4.00;99.90
14531;DHT22;7352;50.866;4.366;2023-04-03T05:35:50;3.90;99.90
14531;DHT22;7352;50.866;4.366;2023-04-03T05:38:18;4.00;99.90
14531;DHT22;7352;50.866;4.366;2023-04-03T05:40:55;4.00;99.90
14531;DHT22;7352;50.866;4.366;2023-04-03T05:43:22;4.10;99.90
14531;DHT22;7352;50.866;4.366;2023-04-03T05:45:50;3.90;99.90
14531;DHT22;7352;50.866;4.366;2023-04-03T05:48:20;3.80;99.90
14531;DHT22;7352;50.866;4.366;2023-04-03T05:50:48;3.90;99.90
14531;DHT22;7352;50.866;4.366;2023-04-03T05:53:23;3.90;99.90
14531;DHT22;7352;50.866;4.366;2023-04-03T05:56:24;3.90;99.90
14531;DHT22;7352;50.866;4.366;2023-04-03T05:58:57;4.10;99.90
14531;DHT22;7352;50.866;4.366;2023-04-03T06:01:38;4.10;99.90
14531;DHT22;7352;50.866;4.366;2023-04-03T06:04:06;4.20;99.90
14531;DHT22;7352;50.866;4.366;2023-04-03T06:06:45;4.10;99.90
14531;DHT22;7352;50.866;4.366;2023-04-03T06:09:14;4.30;99.90
14531;DHT22;7352;50.866;4.366;2023-04-03T06:12:10;4.20;99.90
14531;DHT22;7352;50.866;4.366;2023-04-03T06:14:42;4.30;99.90
14531;DHT22;7352;50.866;4.366;2023-04-03T06:17:15;4.20;99.90
14531;DHT22;7352;50.866;4.366;2023-04-03T06:19:43;4.20;99.90
14531;DHT22;7352;50.866;4.366;2023-04-03T06:22:10;4.30;99.90
14531;DHT22;7352;50.866;4.366;2023-04-03T06:24:39;4.20;99.90
14531;DHT22;7352;50.866;4.366;2023-04-03T06:27:11;4.30;99.90
14531;DHT22;7352;50.866;4.366;2023-04-03T06:29:57;4.50;99.90
14531;DHT22;7352;50.866;4.366;2023-04-03T06:32:41;4.60;99.90
14531;DHT22;7352;50.866;4.366;2023-04-03T06:35:13;4.60;99.90
14531;DHT22;7352;50.866;4.366;2023-04-03T06:37:55;4.70;99.90
14531;DHT22;7352;50.866;4.366;2023-04-03T06:40:23;4.70;99.90
14531;DHT22;7352;50.866;4.366;2023-04-03T06:43:12;4.90;99.90
14531;DHT22;7352;50.866;4.366;2023-04-03T06:46:17;4.90;99.90
14531;DHT22;7352;50.866;4.366;2023-04-03T06:48:59;5.30;99.90
14531;DHT22;7352;50.866;4.366;2023-04-03T06:52:04;5.10;99.90
14531;DHT22;7352;50.866;4.366;2023-04-03T06:54:49;5.10;99.90
14531;DHT22;7352;50.866;4.366;2023-04-03T06:57:45;5.00;99.90
14531;DHT22;7352;50.866;4.366;2023-04-03T07:07:04;5.00;99.90
14531;DHT22;7352;50.866;4.366;2023-04-03T07:09:36;5.00;99.90
14531;DHT22;7352;50.866;4.366;2023-04-03T07:12:25;5.00;99.90
14531;DHT22;7352;50.866;4.366;2023-04-03T07:15:07;5.10;99.90
14531;DHT22;7352;50.866;4.366;2023-04-03T07:17:37;5.20;99.90
14531;DHT22;7352;50.866;4.366;2023-04-03T07:20:22;5.30;99.90
14531;DHT22;7352;50.866;4.366;2023-04-03T07:23:02;5.20;99.90
14531;DHT22;7352;50.866;4.366;2023-04-03T07:25:43;5.20;99.90
14531;DHT22;7352;50.866;4.366;2023-04-03T07:28:36;5.10;99.90
14531;DHT22;7352;50.866;4.366;2023-04-03T07:31:26;5.30;99.90
14531;DHT22;7352;50.866;4.366;2023-04-03T07:33:57;5.60;99.90
14531;DHT22;7352;50.866;4.366;2023-04-03T07:36:39;5.60;99.90
14531;DHT22;7352;50.866;4.366;2023-04-03T07:39:28;5.70;99.90
14531;DHT22;7352;50.866;4.366;2023-04-03T07:41:55;5.80;99.90
14531;DHT22;7352;50.866;4.366;2023-04-03T07:44:24;5.70;99.90
14531;DHT22;7352;50.866;4.366;2023-04-03T07:47:11;5.70;99.90
14531;DHT22;7352;50.866;4.366;2023-04-03T07:49:45;5.70;99.90
14531;DHT22;7352;50.866;4.366;2023-04-03T07:52:12;5.80;99.90
14531;DHT22;7352;50.866;4.366;2023-04-03T07:57:44;6.00;99.90
14531;DHT22;7352;50.866;4.366;2023-04-03T08:00:13;5.80;99.90
14531;DHT22;7352;50.866;4.366;2023-04-03T08:02:40;6.00;99.90
14531;DHT22;7352;50.866;4.366;2023-04-03T08:05:08;6.10;99.90
14531;DHT22;7352;50.866;4.366;2023-04-03T08:07:50;6.00;99.90
14531;DHT22;7352;50.866;4.366;2023-04-03T08:10:20;6.10;99.90
14531;DHT22;7352;50.866;4.366;2023-04-03T08:13:16;6.10;99.90
14531;DHT22;7352;50.866;4.366;2023-04-03T08:15:57;6.20;99.90
14531;DHT22;7352;50.866;4.366;2023-04-03T08:18:25;6.20;99.90
14531;DHT22;7352;50.866;4.366;2023-04-03T08:20:53;6.30;99.90
14531;DHT22;7352;50.866;4.366;2023-04-03T08:23:20;6.50;99.90
14531;DHT22;7352;50.866;4.366;2023-04-03T08:26:07;6.60;99.90
14531;DHT22;7352;50.866;4.366;2023-04-03T08:28:37;6.50;99.90
14531;DHT22;7352;50.866;4.366;2023-04-03T08:31:05;6.60;99.90
14531;DHT22;7352;50.866;4.366;2023-04-03T08:33:47;6.60;99.90
14531;DHT22;7352;50.866;4.366;2023-04-03T08:36:23;6.70;99.90
14531;DHT22;7352;50.866;4.366;2023-04-03T08:38:52;6.80;99.90
14531;DHT22;7352;50.866;4.366;2023-04-03T08:41:27;6.80;99.90
14531;DHT22;7352;50.866;4.366;2023-04-03T08:44:25;6.80;99.90
14531;DHT22;7352;50.866;4.366;2023-04-03T08:47:04;6.80;99.90
14531;DHT22;7352;50.866;4.366;2023-04-03T08:49:40;6.90;99.90
14531;DHT22;7352;50.866;4.366;2023-04-03T08:52:15;7.10;99.90
14531;DHT22;7352;50.866;4.366;2023-04-03T08:54:50;7.00;99.90
14531;DHT22;7352;50.866;4.366;2023-04-03T08:57:26;7.20;99.90
14531;DHT22;7352;50.866;4.366;2023-04-03T08:59:58;7.20;99.90
14531;DHT22;7352;50.866;4.366;2023-04-03T09:02:33;7.30;99.90
14531;DHT22;7352;50.866;4.366;2023-04-03T09:05:34;7.40;99.90
14531;DHT22;7352;50.866;4.366;2023-04-03T09:08:07;7.50;99.90
14531;DHT22;7352;50.866;4.366;2023-04-03T09:10:38;7.50;99.90
14531;DHT22;7352;50.866;4.366;2023-04-03T09:13:12;7.30;99.90
14531;DHT22;7352;50.866;4.366;2023-04-03T09:15:41;7.50;99.90
14531;DHT22;7352;50.866;4.366;2023-04-03T09:18:16;7.70;99.90
14531;DHT22;7352;50.866;4.366;2023-04-03T09:31:45;7.60;99.90
14531;DHT22;7352;50.866;4.366;2023-04-03T09:34:27;7.80;99.90
14531;DHT22;7352;50.866;4.366;2023-04-03T09:37:32;7.80;99.90
14531;DHT22;7352;50.866;4.366;2023-04-03T09:40:06;8.00;99.90
14531;DHT22;7352;50.866;4.366;2023-04-03T09:42:47;8.00;99.90
14531;DHT22;7352;50.866;4.366;2023-04-03T09:45:23;8.00;99.90
14531;DHT22;7352;50.866;4.366;2023-04-03T09:48:06;8.10;99.90
14531;DHT22;7352;50.866;4.366;2023-04-03T09:50:35;8.20;99.90
14531;DHT22;7352;50.866;4.366;2023-04-03T09:53:10;8.30;99.60
14531;DHT22;7352;50.866;4.366;2023-04-03T09:55:51;8.50;99.50
14531;DHT22;7352;50.866;4.366;2023-04-03T09:58:26;8.40;99.10
14531;DHT22;7352;50.866;4.366;2023-04-03T10:00:55;8.50;99.50
14531;DHT22;7352;50.866;4.366;2023-04-03T10:03:28;8.60;99.80
14531;DHT22;7352;50.866;4.366;2023-04-03T10:05:57;8.60;99.80
14531;DHT22;7352;50.866;4.366;2023-04-03T10:08:35;8.70;99.30
14531;DHT22;7352;50.866;4.366;2023-04-03T10:11:11;8.90;98.70
14531;DHT22;7352;50.866;4.366;2023-04-03T10:13:55;8.70;99.10
14531;DHT22;7352;50.866;4.366;2023-04-03T10:16:36;8.80;99.60
14531;DHT22;7352;50.866;4.366;2023-04-03T10:19:25;8.90;98.80
14531;DHT22;7352;50.866;4.366;2023-04-03T10:22:00;8.80;98.80
14531;DHT22;7352;50.866;4.366;2023-04-03T10:24:37;9.10;96.70
14531;DHT22;7352;50.866;4.366;2023-04-03T10:27:15;9.10;96.40
14531;DHT22;7352;50.866;4.366;2023-04-03T10:29:51;9.20;95.90
14531;DHT22;7352;50.866;4.366;2023-04-03T10:32:52;9.20;96.10
14531;DHT22;7352;50.866;4.366;2023-04-03T10:35:39;9.20;95.50
14531;DHT22;7352;50.866;4.366;2023-04-03T10:38:15;9.30;94.90
14531;DHT22;7352;50.866;4.366;2023-04-03T10:41:01;9.40;92.90
14531;DHT22;7352;50.866;4.366;2023-04-03T10:43:39;9.60;92.20
14531;DHT22;7352;50.866;4.366;2023-04-03T10:46:16;9.60;93.40
14531;DHT22;7352;50.866;4.366;2023-04-03T10:49:05;9.60;93.10
14531;DHT22;7352;50.866;4.366;2023-04-03T10:51:41;9.80;94.30
14531;DHT22;7352;50.866;4.366;2023-04-03T10:54:12;9.80;94.10
14531;DHT22;7352;50.866;4.366;2023-04-03T10:56:43;9.90;94.30
14531;DHT22;7352;50.866;4.366;2023-04-03T10:59:18;10.00;92.60
14531;DHT22;7352;50.866;4.366;2023-04-03T11:01:51;10.00;90.60
14531;DHT22;7352;50.866;4.366;2023-04-03T11:04:20;10.00;89.40
14531;DHT22;7352;50.866;4.366;2023-04-03T11:07:10;10.00;86.00
14531;DHT22;7352;50.866;4.366;2023-04-03T11:09:40;10.00;84.00
14531;DHT22;7352;50.866;4.366;2023-04-03T11:12:13;10.10;83.40
14531;DHT22;7352;50.866;4.366;2023-04-03T11:14:43;10.00;83.80
14531;DHT22;7352;50.866;4.366;2023-04-03T11:17:21;10.00;89.40
14531;DHT22;7352;50.866;4.366;2023-04-03T11:19:54;9.90;91.40
14531;DHT22;7352;50.866;4.366;2023-04-03T11:25:26;10.20;90.30
14531;DHT22;7352;50.866;4.366;2023-04-03T11:27:58;10.30;89.80
14531;DHT22;7352;50.866;4.366;2023-04-03T11:30:30;10.20;88.10
14531;DHT22;7352;50.866;4.366;2023-04-03T11:33:33;10.20;87.30
14531;DHT22;7352;50.866;4.366;2023-04-03T11:36:06;10.20;88.10
14531;DHT22;7352;50.866;4.366;2023-04-03T11:38:38;10.20;88.20
14531;DHT22;7352;50.866;4.366;2023-04-03T11:41:10;10.10;86.00
14531;DHT22;7352;50.866;4.366;2023-04-03T11:43:41;10.10;84.10
14531;DHT22;7352;50.866;4.366;2023-04-03T11:46:09;10.10;84.90
14531;DHT22;7352;50.866;4.366;2023-04-03T11:48:50;10.20;84.60
14531;DHT22;7352;50.866;4.366;2023-04-03T11:51:45;10.40;86.30
14531;DHT22;7352;50.866;4.366;2023-04-03T11:54:46;10.50;85.90
14531;DHT22;7352;50.866;4.366;2023-04-03T11:57:46;10.70;85.10
14531;DHT22;7352;50.866;4.366;2023-04-03T12:04:06;10.70;86.80
14531;DHT22;7352;50.866;4.366;2023-04-03T12:06:59;10.80;85.20
14531;DHT22;7352;50.866;4.366;2023-04-03T12:12:38;10.90;86.30
14531;DHT22;7352;50.866;4.366;2023-04-03T12:15:23;10.80;84.20
14531;DHT22;7352;50.866;4.366;2023-04-03T12:17:51;10.80;83.70
14531;DHT22;7352;50.866;4.366;2023-04-03T12:23:31;10.90;74.70
14531;DHT22;7352;50.866;4.366;2023-04-03T12:26:20;10.90;71.80
14531;DHT22;7352;50.866;4.366;2023-04-03T12:28:48;10.90;70.30
14531;DHT22;7352;50.866;4.366;2023-04-03T12:31:24;11.00;71.50
14531;DHT22;7352;50.866;4.366;2023-04-03T12:34:11;11.00;71.80
14531;DHT22;7352;50.866;4.366;2023-04-03T12:36:48;11.10;71.70
14531;DHT22;7352;50.866;4.366;2023-04-03T12:39:36;11.10;68.90
14531;DHT22;7352;50.866;4.366;2023-04-03T12:42:22;11.10;67.50
14531;DHT22;7352;50.866;4.366;2023-04-03T12:44:59;11.20;70.00
14531;DHT22;7352;50.866;4.366;2023-04-03T12:47:35;11.20;69.10
14531;DHT22;7352;50.866;4.366;2023-04-03T12:50:13;11.20;69.50
14531;DHT22;7352;50.866;4.366;2023-04-03T12:52:46;11.20;69.50
14531;DHT22;7352;50.866;4.366;2023-04-03T12:55:17;11.20;66.80
14531;DHT22;7352;50.866;4.366;2023-04-03T12:57:44;11.20;66.10
14531;DHT22;7352;50.866;4.366;2023-04-03T13:00:31;11.30;67.40
14531;DHT22;7352;50.866;4.366;2023-04-03T13:03:01;11.20;67.50
14531;DHT22;7352;50.866;4.366;2023-04-03T13:05:31;11.10;66.90
14531;DHT22;7352;50.866;4.366;2023-04-03T13:08:03;11.10;66.40
14531;DHT22;7352;50.866;4.366;2023-04-03T13:10:31;11.20;66.50
14531;DHT22;7352;50.866;4.366;2023-04-03T13:13:08;11.20;67.50
14531;DHT22;7352;50.866;4.366;2023-04-03T13:15:42;11.40;65.30
14531;DHT22;7352;50.866;4.366;2023-04-03T13:18:29;11.60;65.20
14531;DHT22;7352;50.866;4.366;2023-04-03T13:21:00;11.70;65.70
14531;DHT22;7352;50.866;4.366;2023-04-03T13:23:30;11.80;63.40
14531;DHT22;7352;50.866;4.366;2023-04-03T13:25:58;11.90;61.20
14531;DHT22;7352;50.866;4.366;2023-04-03T13:28:31;11.90;60.50
14531;DHT22;7352;50.866;4.366;2023-04-03T13:31:07;11.90;59.50
14531;DHT22;7352;50.866;4.366;2023-04-03T13:33:37;12.00;59.90
14531;DHT22;7352;50.866;4.366;2023-04-03T13:36:06;12.00;60.60
14531;DHT22;7352;50.866;4.366;2023-04-03T13:38:34;12.00;58.90
14531;DHT22;7352;50.866;4.366;2023-04-03T13:41:04;12.10;59.10
14531;DHT22;7352;50.866;4.366;2023-04-03T13:43:34;12.10;57.00
14531;DHT22;7352;50.866;4.366;2023-04-03T13:46:23;12.10;57.70
14531;DHT22;7352;50.866;4.366;2023-04-03T13:48:55;12.20;58.50
14531;DHT22;7352;50.866;4.366;2023-04-03T13:51:24;12.00;58.90
14531;DHT22;7352;50.866;4.366;2023-04-03T13:53:54;11.90;59.40
14531;DHT22;7352;50.866;4.366;2023-04-03T13:56:31;12.10;59.60
14531;DHT22;7352;50.866;4.366;2023-04-03T13:59:05;12.20;58.80
14531;DHT22;7352;50.866;4.366;2023-04-03T14:01:38;12.20;59.70
14531;DHT22;7352;50.866;4.366;2023-04-03T14:04:18;12.30;59.70
14531;DHT22;7352;50.866;4.366;2023-04-03T14:06:46;12.30;59.70
14531;DHT22;7352;50.866;4.366;2023-04-03T14:09:16;12.40;59.70
14531;DHT22;7352;50.866;4.366;2023-04-03T14:11:43;12.50;59.20
14531;DHT22;7352;50.866;4.366;2023-04-03T14:14:16;12.60;59.00
14531;DHT22;7352;50.866;4.366;2023-04-03T14:16:47;12.60;59.00
14531;DHT22;7352;50.866;4.366;2023-04-03T14:19:23;12.60;58.90
14531;DHT22;7352;50.866;4.366;2023-04-03T14:21:51;12.80;59.40
14531;DHT22;7352;50.866;4.366;2023-04-03T14:24:21;13.00;58.80
14531;DHT22;7352;50.866;4.366;2023-04-03T14:26:49;13.00;57.40
14531;DHT22;7352;50.866;4.366;2023-04-03T14:29:18;13.20;57.50
14531;DHT22;7352;50.866;4.366;2023-04-03T14:31:46;13.30;57.80
14531;DHT22;7352;50.866;4.366;2023-04-03T14:34:16;13.20;58.30
14531;DHT22;7352;50.866;4.366;2023-04-03T14:36:45;13.30;56.90
14531;DHT22;7352;50.866;4.366;2023-04-03T14:39:18;13.30;57.80
14531;DHT22;7352;50.866;4.366;2023-04-03T14:41:46;13.40;57.60
14531;DHT22;7352;50.866;4.366;2023-04-03T14:44:15;13.50;57.00
14531;DHT22;7352;50.866;4.366;2023-04-03T14:46:43;13.80;57.60
14531;DHT22;7352;50.866;4.366;2023-04-03T14:49:15;14.00;56.00
14531;DHT22;7352;50.866;4.366;2023-04-03T14:51:42;13.90;56.80
14531;DHT22;7352;50.866;4.366;2023-04-03T14:54:18;14.00;56.50
14531;DHT22;7352;50.866;4.366;2023-04-03T14:56:51;14.20;56.90
14531;DHT22;7352;50.866;4.366;2023-04-03T14:59:18;14.30;56.40
14531;DHT22;7352;50.866;4.366;2023-04-03T15:01:47;14.30;57.50
14531;DHT22;7352;50.866;4.366;2023-04-03T15:04:15;14.50;57.80
14531;DHT22;7352;50.866;4.366;2023-04-03T15:06:43;14.60;56.90
14531;DHT22;7352;50.866;4.366;2023-04-03T15:09:18;14.70;56.90
14531;DHT22;7352;50.866;4.366;2023-04-03T15:11:47;14.60;57.20
14531;DHT22;7352;50.866;4.366;2023-04-03T15:14:14;14.60;54.60
14531;DHT22;7352;50.866;4.366;2023-04-03T15:16:42;14.80;53.70
14531;DHT22;7352;50.866;4.366;2023-04-03T15:19:11;14.80;53.90
14531;DHT22;7352;50.866;4.366;2023-04-03T15:21:41;15.00;54.90
14531;DHT22;7352;50.866;4.366;2023-04-03T15:24:09;15.10;55.20
14531;DHT22;7352;50.866;4.366;2023-04-03T15:26:38;15.50;54.50
14531;DHT22;7352;50.866;4.366;2023-04-03T15:29:07;15.80;52.10
14531;DHT22;7352;50.866;4.366;2023-04-03T15:31:34;16.00;51.90
14531;DHT22;7352;50.866;4.366;2023-04-03T15:34:02;16.00;52.60
14531;DHT22;7352;50.866;4.366;2023-04-03T15:36:31;16.20;51.10
14531;DHT22;7352;50.866;4.366;2023-04-03T15:38:58;16.20;50.90
14531;DHT22;7352;50.866;4.366;2023-04-03T15:41:26;16.20;50.10
14531;DHT22;7352;50.866;4.366;2023-04-03T15:43:54;16.40;51.90
14531;DHT22;7352;50.866;4.366;2023-04-03T15:46:25;16.60;49.60
14531;DHT22;7352;50.866;4.366;2023-04-03T15:48:52;16.90;49.80
14531;DHT22;7352;50.866;4.366;2023-04-03T15:51:20;17.00;50.10
14531;DHT22;7352;50.866;4.366;2023-04-03T15:53:48;17.10;50.50
14531;DHT22;7352;50.866;4.366;2023-04-03T15:56:15;17.30;50.00
14531;DHT22;7352;50.866;4.366;2023-04-03T15:58:42;17.30;50.10
14531;DHT22;7352;50.866;4.366;2023-04-03T16:01:11;17.30;49.00
14531;DHT22;7352;50.866;4.366;2023-04-03T16:03:42;17.60;48.60
14531;DHT22;7352;50.866;4.366;2023-04-03T16:06:15;17.80;49.60
14531;DHT22;7352;50.866;4.366;2023-04-03T16:09:03;18.00;49.90
14531;DHT22;7352;50.866;4.366;2023-04-03T16:11:48;18.10;48.40
14531;DHT22;7352;50.866;4.366;2023-04-03T16:14:22;18.20;47.10
14531;DHT22;7352;50.866;4.366;2023-04-03T16:16:52;18.30;47.50
14531;DHT22;7352;50.866;4.366;2023-04-03T16:19:22;18.00;47.20
14531;DHT22;7352;50.866;4.366;2023-04-03T16:22:06;18.10;47.10
14531;DHT22;7352;50.866;4.366;2023-04-03T16:24:42;18.10;47.30
14531;DHT22;7352;50.866;4.366;2023-04-03T16:27:15;18.10;48.10
14531;DHT22;7352;50.866;4.366;2023-04-03T16:29:47;18.10;48.00
14531;DHT22;7352;50.866;4.366;2023-04-03T16:32:19;18.30;47.80
14531;DHT22;7352;50.866;4.366;2023-04-03T16:34:49;18.50;48.00
14531;DHT22;7352;50.866;4.366;2023-04-03T16:37:17;19.00;46.80
14531;DHT22;7352;50.866;4.366;2023-04-03T16:39:48;18.80;46.10
14531;DHT22;7352;50.866;4.366;2023-04-03T16:42:15;19.00;46.20
14531;DHT22;7352;50.866;4.366;2023-04-03T16:44:42;18.80;47.00
14531;DHT22;7352;50.866;4.366;2023-04-03T16:47:09;18.40;47.80
14531;DHT22;7352;50.866;4.366;2023-04-03T16:49:43;18.30;47.30
14531;DHT22;7352;50.866;4.366;2023-04-03T16:52:12;18.20;47.90
14531;DHT22;7352;50.866;4.366;2023-04-03T16:54:39;18.10;47.90
14531;DHT22;7352;50.866;4.366;2023-04-03T16:57:06;18.40;47.70
14531;DHT22;7352;50.866;4.366;2023-04-03T16:59:34;18.40;48.10
14531;DHT22;7352;50.866;4.366;2023-04-03T17:02:02;18.10;47.50
14531;DHT22;7352;50.866;4.366;2023-04-03T17:04:29;17.70;48.30
14531;DHT22;7352;50.866;4.366;2023-04-03T17:06:58;17.10;48.80
14531;DHT22;7352;50.866;4.366;2023-04-03T17:09:31;16.70;49.00
14531;DHT22;7352;50.866;4.366;2023-04-03T17:11:58;16.00;49.30
14531;DHT22;7352;50.866;4.366;2023-04-03T17:14:25;15.80;50.20